Time;durP1;ratioP1;P1;durP2;ratioP2;P2;SDS_P1;SDS_P2;PMS_P1;PMS_P2;Temp;Humidity;BMP_temperature;BMP_pressure;BME280_temperature;BME280_humidity;BME280_pressure;Samples;Min_cycle;Max_cycle;Signal;HPM_P1;HPM_P2
2021/06/23 00:00:12;;;;;;;5.63;2.07;;;;;;;12.86;60.84;102205.00;682782;29;870;-59
2021/06/23 00:00:33;;;;;;;5.95;2.20;;;;;;;12.87;61.46;102212.03;682841;29;877;-59
2021/06/23 00:00:53;;;;;;;6.03;2.08;;;;;;;12.82;61.61;102214.81;682805;29;968;-59
2021/06/23 00:01:14;;;;;;;6.57;2.20;;;;;;;12.85;61.08;102208.56;682742;29;801;-59
2021/06/23 00:01:34;;;;;;;6.20;2.03;;;;;;;12.88;61.24;102211.13;682867;29;819;-59
2021/06/23 00:01:55;;;;;;;6.07;2.22;;;;;;;12.89;60.92;102212.84;682531;29;1549;-59
2021/06/23 00:02:16;;;;;;;5.17;2.10;;;;;;;12.84;61.19;102215.66;682744;29;832;-59
2021/06/23 00:02:36;;;;;;;5.97;2.17;;;;;;;12.80;60.85;102214.88;682788;29;809;-59
2021/06/23 00:02:56;;;;;;;6.07;2.30;;;;;;;12.79;60.69;102212.25;682132;29;1519;-60
2021/06/23 00:03:16;;;;;;;5.40;2.30;;;;;;;12.80;60.75;102212.22;682706;29;1550;-60
2021/06/23 00:03:37;;;;;;;6.10;2.40;;;;;;;12.77;60.55;102207.03;682828;29;829;-59
2021/06/23 00:03:57;;;;;;;6.27;2.43;;;;;;;12.79;60.70;102214.91;682734;29;880;-58
2021/06/23 00:04:17;;;;;;;5.83;2.47;;;;;;;12.76;60.63;102213.19;682719;29;884;-59
2021/06/23 00:04:37;;;;;;;6.43;2.20;;;;;;;12.78;60.77;102216.69;682819;29;963;-58
2021/06/23 00:04:58;;;;;;;5.73;2.10;;;;;;;12.80;60.52;102221.91;682762;29;805;-58
2021/06/23 00:05:19;;;;;;;7.10;2.20;;;;;;;12.80;60.76;102217.50;682619;29;988;-58
2021/06/23 00:05:39;;;;;;;7.43;2.20;;;;;;;12.79;60.77;102214.91;682590;29;1582;-58
2021/06/23 00:05:59;;;;;;;6.18;2.35;;;;;;;12.85;60.67;102213.88;682686;29;837;-58
2021/06/23 00:06:19;;;;;;;7.00;2.20;;;;;;;12.86;60.60;102219.09;682839;29;915;-58
2021/06/23 00:06:40;;;;;;;7.30;2.40;;;;;;;12.88;60.66;102208.47;682787;29;840;-58
2021/06/23 00:07:00;;;;;;;6.72;2.20;;;;;;;12.91;60.60;102218.97;682708;29;901;-58
2021/06/23 00:07:20;;;;;;;6.63;2.00;;;;;;;12.94;60.46;102210.91;682859;29;872;-58
2021/06/23 00:07:41;;;;;;;7.30;2.10;;;;;;;12.92;60.42;102221.56;682871;29;888;-58
2021/06/23 00:08:02;;;;;;;6.60;2.10;;;;;;;12.90;60.60;102218.09;682631;29;1002;-58
2021/06/23 00:08:22;;;;;;;6.37;2.10;;;;;;;12.92;60.54;102218.06;682665;28;1209;-59
2021/06/23 00:08:43;;;;;;;7.05;2.20;;;;;;;12.92;60.62;102216.28;682829;29;848;-58
2021/06/23 00:09:06;;;;;;;6.00;2.10;;;;;;;12.89;60.31;102215.50;682639;29;1023;-58
2021/06/23 00:09:27;;;;;;;7.00;2.10;;;;;;;12.92;60.17;102215.41;682804;29;1032;-59
2021/06/23 00:09:47;;;;;;;5.90;2.20;;;;;;;12.91;60.75;102216.34;682738;29;857;-58
2021/06/23 00:10:08;;;;;;;5.13;1.87;;;;;;;12.90;60.50;102217.22;682747;29;793;-58
2021/06/23 00:10:28;;;;;;;6.53;2.10;;;;;;;12.91;60.66;102213.69;682788;29;800;-57
2021/06/23 00:10:51;;;;;;;5.93;2.00;;;;;;;12.90;60.89;102209.28;682696;29;824;-58
2021/06/23 00:11:11;;;;;;;6.75;2.17;;;;;;;12.91;60.94;102218.97;682737;29;900;-58
2021/06/23 00:11:42;;;;;;;6.77;2.20;;;;;;;12.94;60.16;102213.56;682747;29;976;-58
2021/06/23 00:12:03;;;;;;;6.45;2.10;;;;;;;12.93;59.97;102215.34;682526;29;1703;-58
2021/06/23 00:12:23;;;;;;;6.63;2.10;;;;;;;12.96;59.42;102214.41;682571;29;1961;-58
2021/06/23 00:12:45;;;;;;;6.67;2.20;;;;;;;12.90;59.89;102218.09;682311;29;876;-58
2021/06/23 00:13:07;;;;;;;6.70;2.15;;;;;;;12.93;59.40;102218.00;682785;29;829;-58
2021/06/23 00:13:31;;;;;;;5.95;2.00;;;;;;;12.91;59.84;102211.03;682679;29;931;-58
2021/06/23 00:13:51;;;;;;;6.85;2.00;;;;;;;12.94;59.50;102213.56;682842;29;833;-58
2021/06/23 00:14:13;;;;;;;6.50;2.17;;;;;;;12.97;59.52;102210.84;682503;29;1606;-59
2021/06/23 00:14:33;;;;;;;5.75;2.00;;;;;;;12.98;59.84;102210.81;682761;29;824;-58
2021/06/23 00:14:53;;;;;;;5.93;2.10;;;;;;;12.98;59.44;102209.94;682721;29;1000;-59
2021/06/23 00:15:16;;;;;;;5.07;2.00;;;;;;;12.95;59.67;102212.69;682807;29;1026;-59
2021/06/23 00:15:37;;;;;;;5.65;2.10;;;;;;;12.94;59.48;102213.56;682775;29;1047;-59
2021/06/23 00:15:58;;;;;;;6.72;2.17;;;;;;;12.88;59.73;102213.78;682585;29;1384;-59
2021/06/23 00:16:18;;;;;;;7.05;2.00;;;;;;;12.93;59.27;102222.44;682677;29;899;-59
2021/06/23 00:16:42;;;;;;;6.60;2.20;;;;;;;12.93;59.49;102219.78;682781;29;960;-59
2021/06/23 00:17:02;;;;;;;5.95;2.10;;;;;;;12.96;59.49;102211.75;682718;29;817;-58
2021/06/23 00:17:23;;;;;;;6.53;2.20;;;;;;;12.98;59.30;102216.09;682727;29;924;-59
2021/06/23 00:17:43;;;;;;;6.33;2.10;;;;;;;13.01;58.95;102215.16;682858;29;909;-59
2021/06/23 00:18:05;;;;;;;7.00;2.00;;;;;;;13.01;59.63;102209.84;682837;29;1004;-58
2021/06/23 00:18:25;;;;;;;6.43;2.03;;;;;;;13.01;60.13;102215.16;682651;28;1305;-59
2021/06/23 00:18:46;;;;;;;7.03;2.00;;;;;;;12.99;59.58;102219.59;682828;29;794;-59
2021/06/23 00:19:06;;;;;;;6.95;2.00;;;;;;;13.00;59.63;102216.03;682802;29;837;-59
2021/06/23 00:19:26;;;;;;;6.00;1.93;;;;;;;12.99;59.43;102220.47;682973;29;933;-59
2021/06/23 00:19:47;;;;;;;6.93;2.10;;;;;;;13.01;59.48;102220.44;683306;29;865;-59
2021/06/23 00:20:08;;;;;;;8.65;2.13;;;;;;;13.03;59.12;102223.88;683335;29;896;-59
2021/06/23 00:20:28;;;;;;;7.53;2.20;;;;;;;12.98;59.39;102215.25;683276;29;856;-59
2021/06/23 00:20:48;;;;;;;5.43;1.90;;;;;;;12.99;59.17;102223.13;683410;29;978;-59
2021/06/23 00:21:09;;;;;;;5.07;1.90;;;;;;;12.97;59.46;102213.47;683571;29;829;-59
2021/06/23 00:21:29;;;;;;;5.32;2.00;;;;;;;12.99;59.36;102215.19;683561;29;1005;-58
2021/06/23 00:21:49;;;;;;;5.63;2.10;;;;;;;12.98;60.31;102217.88;683422;29;908;-59
2021/06/23 00:22:09;;;;;;;6.17;2.10;;;;;;;12.90;60.28;102211.94;683291;29;936;-59
2021/06/23 00:22:30;;;;;;;7.75;2.10;;;;;;;12.88;60.38;102214.63;683317;29;1483;-60
2021/06/23 00:22:50;;;;;;;6.80;2.17;;;;;;;12.90;60.42;102217.22;680057;29;1031;-59
2021/06/23 00:23:11;;;;;;;6.07;2.00;;;;;;;12.87;60.38;102217.31;680749;29;865;-59
2021/06/23 00:23:31;;;;;;;6.47;2.00;;;;;;;12.87;60.38;102214.66;680791;29;932;-59
2021/06/23 00:23:52;;;;;;;5.38;2.00;;;;;;;12.83;60.28;102208.59;680629;29;881;-59
2021/06/23 00:24:12;;;;;;;5.57;2.03;;;;;;;12.82;60.44;102217.47;680744;29;877;-59
2021/06/23 00:24:32;;;;;;;5.18;1.92;;;;;;;12.83;60.72;102214.78;680913;29;814;-59
2021/06/23 00:24:53;;;;;;;4.80;1.80;;;;;;;12.87;60.26;102222.59;683303;29;818;-58
2021/06/23 00:25:13;;;;;;;4.90;1.90;;;;;;;12.89;60.07;102218.16;682690;29;1670;-59
2021/06/23 00:25:34;;;;;;;7.88;2.42;;;;;;;12.87;60.06;102218.19;682804;29;869;-59
2021/06/23 00:25:55;;;;;;;7.70;2.23;;;;;;;12.86;60.03;102216.44;682703;29;845;-59
2021/06/23 00:26:15;;;;;;;5.78;2.00;;;;;;;12.86;60.12;102216.44;682465;29;1439;-59
2021/06/23 00:26:36;;;;;;;5.10;2.10;;;;;;;12.86;60.34;102215.59;682374;29;1466;-57
2021/06/23 00:26:56;;;;;;;6.47;2.17;;;;;;;12.87;60.19;102214.66;682628;29;936;-57
2021/06/23 00:27:17;;;;;;;6.80;2.10;;;;;;;12.90;60.05;102215.44;682839;29;813;-57
2021/06/23 00:27:37;;;;;;;5.93;1.95;;;;;;;12.86;60.62;102212.94;682737;29;833;-57
2021/06/23 00:27:57;;;;;;;5.63;1.97;;;;;;;12.87;60.91;102218.19;682782;29;1007;-57
2021/06/23 00:28:18;;;;;;;4.95;2.20;;;;;;;12.87;59.86;102223.50;682735;28;1446;-59
2021/06/23 00:28:38;;;;;;;5.03;2.03;;;;;;;12.90;60.41;102219.88;682629;29;972;-59
2021/06/23 00:29:00;;;;;;;6.57;2.10;;;;;;;12.91;60.14;102219.84;682629;29;963;-59
2021/06/23 00:30:37;;;;;;;6.95;2.28;;;;;;;12.85;59.99;102224.44;682347;29;923;-59
2021/06/23 00:30:58;;;;;;;7.23;2.20;;;;;;;12.89;59.81;102226.09;682666;29;876;-59
2021/06/23 00:31:18;;;;;;;5.47;2.10;;;;;;;12.91;59.63;102214.56;682898;29;848;-60
2021/06/23 00:31:38;;;;;;;5.80;2.00;;;;;;;12.95;59.82;102226.78;682639;29;1004;-59
2021/06/23 00:31:59;;;;;;;4.97;1.83;;;;;;;12.93;60.28;102222.44;682882;29;908;-61
2021/06/23 00:32:23;;;;;;;3.92;1.88;;;;;;;12.94;59.68;102224.16;682633;29;1923;-59
2021/06/23 00:32:45;;;;;;;5.65;1.90;;;;;;;12.92;59.83;102226.84;682486;29;933;-59
2021/06/23 00:33:08;;;;;;;7.57;2.13;;;;;;;12.89;59.95;102226.09;681926;29;1555;-59
2021/06/23 00:33:31;;;;;;;6.70;2.00;;;;;;;12.91;60.33;102227.78;682695;29;903;-59
2021/06/23 00:33:53;;;;;;;4.85;1.90;;;;;;;12.90;60.07;102222.50;682750;29;1093;-59
2021/06/23 00:34:16;;;;;;;6.40;2.10;;;;;;;12.94;60.08;102225.03;682742;29;976;-59
2021/06/23 00:34:37;;;;;;;6.03;1.83;;;;;;;12.93;59.66;102231.22;682706;29;987;-59
2021/06/23 00:34:57;;;;;;;5.78;1.85;;;;;;;12.96;59.80;102228.50;682768;29;936;-59
2021/06/23 00:35:17;;;;;;;4.67;1.90;;;;;;;12.95;60.23;102224.13;682610;29;777;-59
2021/06/23 00:35:38;;;;;;;7.10;2.38;;;;;;;12.92;60.23;102231.28;682802;29;891;-59
2021/06/23 00:35:58;;;;;;;6.90;2.20;;;;;;;12.89;60.41;102226.09;682761;29;849;-61
2021/06/23 00:36:18;;;;;;;6.43;2.15;;;;;;;12.90;60.79;102230.44;682689;29;1016;-59
2021/06/23 00:36:39;;;;;;;5.40;2.07;;;;;;;12.89;60.34;102220.78;682734;29;971;-59
2021/06/23 00:36:59;;;;;;;5.77;2.20;;;;;;;12.85;60.74;102227.09;682721;29;786;-59
2021/06/23 00:37:19;;;;;;;6.18;2.05;;;;;;;12.83;60.80;102219.19;682711;29;959;-59
2021/06/23 00:37:40;;;;;;;6.27;2.10;;;;;;;12.82;60.84;102226.25;682795;29;865;-59
2021/06/23 00:38:00;;;;;;;6.33;2.20;;;;;;;12.86;60.99;102226.16;682746;29;817;-59
2021/06/23 00:38:20;;;;;;;6.40;2.17;;;;;;;12.86;61.06;102216.44;682639;29;1410;-59
2021/06/23 00:38:41;;;;;;;7.07;2.13;;;;;;;12.81;60.99;102226.31;682781;29;817;-58
2021/06/23 00:39:01;;;;;;;6.70;2.10;;;;;;;12.79;61.02;102221.06;682708;29;853;-59
2021/06/23 00:39:22;;;;;;;7.23;2.10;;;;;;;12.77;61.19;102225.53;682703;29;841;-59
2021/06/23 00:39:45;;;;;;;7.22;2.13;;;;;;;12.76;61.51;102220.28;682764;29;896;-62
2021/06/23 00:40:08;;;;;;;8.23;2.03;;;;;;;12.75;61.29;102214.13;682797;29;848;-60
2021/06/23 00:40:29;;;;;;;6.97;2.10;;;;;;;12.74;61.27;102222.97;682749;29;829;-59
2021/06/23 00:40:49;;;;;;;7.32;2.10;;;;;;;12.77;61.42;102222.03;682601;29;865;-59
2021/06/23 00:41:16;;;;;;;7.93;2.30;;;;;;;12.74;61.36;102220.34;682693;29;888;-59
2021/06/23 00:41:36;;;;;;;6.18;1.95;;;;;;;12.79;61.70;102220.19;682808;29;904;-59
2021/06/23 00:41:56;;;;;;;7.33;2.20;;;;;;;12.78;61.30;102218.47;682675;29;849;-59
2021/06/23 00:42:16;;;;;;;6.63;2.17;;;;;;;12.77;61.35;102219.38;682706;29;1019;-59
2021/06/23 00:42:39;;;;;;;5.82;2.20;;;;;;;12.75;60.95;102222.06;682611;29;901;-59
2021/06/23 00:43:00;;;;;;;6.70;2.22;;;;;;;12.76;60.73;102220.28;682469;28;974;-59
2021/06/23 00:43:21;;;;;;;7.18;2.30;;;;;;;12.76;61.37;102221.13;682687;29;992;-59
2021/06/23 00:43:41;;;;;;;8.00;2.00;;;;;;;12.75;61.85;102222.06;682909;29;912;-59
2021/06/23 00:44:02;;;;;;;7.43;2.10;;;;;;;12.74;61.71;102220.34;683314;29;845;-59
2021/06/23 00:44:23;;;;;;;6.07;2.10;;;;;;;12.73;61.59;102215.06;683374;29;794;-59
2021/06/23 00:44:44;;;;;;;5.43;2.00;;;;;;;12.74;61.70;102222.13;683208;29;965;-59
2021/06/23 00:45:07;;;;;;;5.85;2.00;;;;;;;12.77;61.84;102227.31;683229;29;1004;-59
2021/06/23 00:45:27;;;;;;;7.25;2.22;;;;;;;12.77;61.73;102217.59;683237;29;1064;-59
2021/06/23 00:45:49;;;;;;;6.65;2.17;;;;;;;12.75;61.77;102222.06;682987;29;1585;-58
2021/06/23 00:46:11;;;;;;;5.53;2.20;;;;;;;12.73;62.06;102225.66;683418;29;821;-60
2021/06/23 00:46:31;;;;;;;5.13;1.90;;;;;;;12.74;61.81;102220.34;683263;29;879;-59
2021/06/23 00:46:52;;;;;;;5.73;1.90;;;;;;;12.80;61.53;102217.50;683333;29;833;-59
2021/06/23 00:47:14;;;;;;;7.43;2.20;;;;;;;12.80;60.90;102219.28;683310;29;908;-59
2021/06/23 00:47:34;;;;;;;7.00;2.20;;;;;;;12.83;60.97;102220.06;683206;29;1039;-59
2021/06/23 00:47:56;;;;;;;6.55;2.08;;;;;;;12.87;60.91;102217.31;683040;29;1534;-59
2021/06/23 00:48:28;;;;;;;5.90;2.03;;;;;;;12.87;61.30;102220.84;683203;29;1401;-59
2021/06/23 00:48:55;;;;;;;7.60;2.25;;;;;;;12.79;60.84;102222.84;683204;29;908;-59
2021/06/23 00:49:15;;;;;;;7.05;2.20;;;;;;;12.78;61.23;102214.03;683272;29;955;-59
2021/06/23 00:49:37;;;;;;;8.18;2.33;;;;;;;12.77;61.14;102222.91;683192;29;1071;-59
2021/06/23 00:49:58;;;;;;;6.93;2.30;;;;;;;12.79;61.21;102218.41;683259;29;936;-59
2021/06/23 00:50:19;;;;;;;6.13;2.15;;;;;;;12.79;61.70;102221.06;683191;29;920;-59
2021/06/23 00:50:40;;;;;;;7.68;2.08;;;;;;;12.80;61.50;102216.63;683324;29;879;-59
2021/06/23 00:51:02;;;;;;;8.02;2.00;;;;;;;12.85;61.25;102220.00;683181;29;991;-59
2021/06/23 00:51:22;;;;;;;6.10;2.17;;;;;;;12.88;60.92;102216.41;683236;29;853;-59
2021/06/23 00:51:44;;;;;;;4.85;1.90;;;;;;;12.88;60.93;102219.06;683190;29;956;-60
2021/06/23 00:52:07;;;;;;;4.85;1.75;;;;;;;12.88;61.28;102219.06;683165;29;869;-59
2021/06/23 00:52:27;;;;;;;6.88;2.13;;;;;;;12.83;61.49;102222.72;683184;29;1915;-59
2021/06/23 00:52:50;;;;;;;8.60;2.40;;;;;;;12.86;61.14;102220.88;682805;29;813;-59
2021/06/23 00:53:11;;;;;;;8.60;2.30;;;;;;;12.89;61.30;102220.78;683020;29;1028;-59
2021/06/23 00:53:31;;;;;;;5.57;2.10;;;;;;;12.88;61.52;102219.06;683332;29;869;-59
2021/06/23 00:53:53;;;;;;;6.10;2.10;;;;;;;12.86;61.69;102219.09;683115;29;794;-59
2021/06/23 00:54:14;;;;;;;5.70;2.10;;;;;;;12.86;61.14;102220.88;683298;29;968;-59
2021/06/23 00:54:35;;;;;;;6.00;2.00;;;;;;;12.85;61.59;102221.81;683307;29;936;-59
2021/06/23 00:54:56;;;;;;;6.23;2.03;;;;;;;12.82;61.06;102220.97;683156;29;999;-58
2021/06/23 00:55:20;;;;;;;6.25;2.10;;;;;;;12.79;61.50;102221.06;683167;29;1027;-59
2021/06/23 00:55:41;;;;;;;7.32;2.20;;;;;;;12.69;61.77;102219.59;683267;29;908;-61
2021/06/23 00:56:02;;;;;;;6.10;2.20;;;;;;;12.71;61.83;102215.13;683126;29;897;-59
2021/06/23 00:56:33;;;;;;;6.70;2.30;;;;;;;12.77;61.71;102220.25;683219;29;1016;-60
2021/06/23 00:56:57;;;;;;;5.75;2.10;;;;;;;12.75;61.87;102219.41;683150;29;873;-59
2021/06/23 00:57:19;;;;;;;5.13;1.90;;;;;;;12.76;61.98;102215.84;683170;29;896;-59
2021/06/23 00:57:40;;;;;;;6.20;2.03;;;;;;;12.77;61.73;102222.03;683231;29;913;-59
2021/06/23 00:58:02;;;;;;;7.33;2.33;;;;;;;12.69;62.10;102224.88;683173;29;817;-59
2021/06/23 00:58:23;;;;;;;7.43;2.30;;;;;;;12.67;61.63;102226.72;683234;29;1360;-59
2021/06/23 00:58:48;;;;;;;7.35;2.30;;;;;;;12.65;61.81;102222.38;683176;29;936;-59
2021/06/23 00:59:09;;;;;;;6.15;2.10;;;;;;;12.70;61.31;102226.63;683183;29;945;-61
2021/06/23 00:59:31;;;;;;;6.38;2.10;;;;;;;12.70;61.29;102229.28;683211;29;980;-59
2021/06/23 00:59:54;;;;;;;5.75;2.20;;;;;;;12.68;61.34;102228.44;683216;29;896;-59
2021/06/23 01:00:17;;;;;;;6.13;2.28;;;;;;;12.69;61.63;102216.94;683097;29;1090;-59
2021/06/23 01:00:38;;;;;;;6.53;2.30;;;;;;;12.69;61.81;102227.53;683189;29;892;-59
2021/06/23 01:00:58;;;;;;;6.20;2.15;;;;;;;12.67;61.11;102229.34;682986;29;1466;-59
2021/06/23 01:01:18;;;;;;;6.27;2.30;;;;;;;12.70;61.24;102225.78;682124;29;1528;-59
2021/06/23 01:01:43;;;;;;;7.35;2.30;;;;;;;12.63;61.15;102225.06;683207;29;860;-59
2021/06/23 01:02:04;;;;;;;7.63;2.00;;;;;;;12.68;60.99;102223.16;683228;29;806;-59
2021/06/23 01:02:25;;;;;;;7.28;2.10;;;;;;;12.72;61.23;102222.16;683110;29;885;-59
2021/06/23 01:02:47;;;;;;;6.30;2.20;;;;;;;12.72;61.68;102219.50;682863;29;825;-59
2021/06/23 01:03:10;;;;;;;6.45;2.15;;;;;;;12.72;61.43;102224.78;682942;29;1486;-59
2021/06/23 01:03:30;;;;;;;6.55;2.10;;;;;;;12.72;61.60;102223.94;683119;29;918;-59
2021/06/23 01:03:52;;;;;;;7.32;2.20;;;;;;;12.70;61.94;102223.97;683297;29;944;-59
2021/06/23 01:04:14;;;;;;;6.05;2.20;;;;;;;12.68;62.09;102224.94;683099;29;841;-59
2021/06/23 01:04:34;;;;;;;5.78;2.08;;;;;;;12.69;61.93;102226.66;683217;29;897;-59
2021/06/23 01:04:55;;;;;;;6.47;2.30;;;;;;;12.72;61.90;102222.16;683201;29;921;-59
2021/06/23 01:05:16;;;;;;;6.07;2.10;;;;;;;12.73;62.04;102223.00;683062;29;1197;-59
2021/06/23 01:05:38;;;;;;;6.03;2.05;;;;;;;12.75;61.55;102219.41;683208;29;857;-59
2021/06/23 01:05:58;;;;;;;7.28;2.20;;;;;;;12.72;61.63;102230.06;683307;29;848;-60
2021/06/23 01:06:19;;;;;;;6.93;2.20;;;;;;;12.72;61.79;102224.78;683045;29;869;-59
2021/06/23 01:06:40;;;;;;;5.45;2.00;;;;;;;12.76;61.41;102221.13;683264;29;857;-60
2021/06/23 01:07:01;;;;;;;5.05;2.10;;;;;;;12.79;61.52;102218.41;683177;29;964;-59
2021/06/23 01:07:21;;;;;;;6.95;2.20;;;;;;;12.81;61.27;102221.88;683138;29;994;-59
2021/06/23 01:07:42;;;;;;;6.40;2.10;;;;;;;12.88;61.16;102221.72;683215;29;847;-59
2021/06/23 01:08:05;;;;;;;6.47;2.15;;;;;;;12.81;60.69;102224.53;683151;29;1000;-59
2021/06/23 01:08:25;;;;;;;5.85;2.33;;;;;;;12.82;60.68;102226.25;683160;29;1067;-59
2021/06/23 01:08:46;;;;;;;5.80;2.10;;;;;;;12.81;60.96;102224.53;683262;29;549;-59
2021/06/23 01:09:07;;;;;;;5.05;1.95;;;;;;;12.83;60.40;102225.38;683035;29;1003;-59
2021/06/23 01:09:27;;;;;;;5.32;2.17;;;;;;;12.85;60.40;102225.31;683227;29;1038;-59
2021/06/23 01:09:47;;;;;;;5.20;2.20;;;;;;;12.87;60.60;102227.91;683194;29;979;-59
2021/06/23 01:10:09;;;;;;;5.05;2.03;;;;;;;12.83;60.79;102221.81;683158;29;929;-59
2021/06/23 01:10:32;;;;;;;5.47;2.15;;;;;;;12.78;61.56;102227.25;683114;29;899;-59
2021/06/23 01:10:52;;;;;;;7.85;2.30;;;;;;;12.76;61.05;102221.13;683146;29;876;-59
2021/06/23 01:11:12;;;;;;;6.43;2.10;;;;;;;12.77;61.58;102222.91;683163;29;884;-59
2021/06/23 01:11:41;;;;;;;4.70;2.17;;;;;;;12.79;61.45;102226.34;682942;29;1549;-59
2021/06/23 01:12:15;;;;;;;6.28;2.30;;;;;;;12.76;61.45;102231.72;683129;29;960;-59
2021/06/23 01:12:45;;;;;;;6.70;2.20;;;;;;;12.75;61.59;102235.28;682967;29;1972;-59
2021/06/23 01:13:27;;;;;;;7.28;2.28;;;;;;;12.75;61.95;102227.34;683069;29;968;-59
2021/06/23 01:14:05;;;;;;;4.88;2.10;;;;;;;12.76;62.46;102225.56;683135;29;825;-59
2021/06/23 01:14:26;;;;;;;7.53;2.30;;;;;;;12.76;62.40;102229.06;683200;29;892;-59
2021/06/23 01:14:48;;;;;;;6.05;2.25;;;;;;;12.74;62.10;102227.41;683021;29;840;-59
2021/06/23 01:15:11;;;;;;;7.28;2.30;;;;;;;12.75;62.39;102230.00;683148;29;1027;-59
2021/06/23 01:15:33;;;;;;;6.28;2.13;;;;;;;12.73;62.12;102230.94;683206;29;1032;-59
2021/06/23 01:15:55;;;;;;;5.22;2.25;;;;;;;12.74;62.34;102233.56;683228;29;845;-59
2021/06/23 01:16:17;;;;;;;6.50;2.35;;;;;;;12.73;62.12;102226.53;683301;29;903;-59
2021/06/23 01:16:40;;;;;;;7.80;2.30;;;;;;;12.73;62.19;102237.13;683081;29;892;-59
2021/06/23 01:17:02;;;;;;;7.63;2.17;;;;;;;12.72;62.65;102235.38;682984;29;1545;-59
2021/06/23 01:17:23;;;;;;;8.02;2.20;;;;;;;12.73;62.56;102229.19;683083;29;1357;-59
2021/06/23 01:17:45;;;;;;;6.80;2.30;;;;;;;12.72;63.02;102235.38;683155;29;876;-59
2021/06/23 01:18:09;;;;;;;6.55;2.10;;;;;;;12.73;62.68;102231.84;683181;29;1237;-59
2021/06/23 01:18:32;;;;;;;6.03;2.40;;;;;;;12.76;62.73;102237.00;683171;29;908;-59
2021/06/23 01:18:53;;;;;;;6.82;2.30;;;;;;;12.77;62.51;102230.84;683133;29;1077;-59
2021/06/23 01:19:13;;;;;;;5.80;2.15;;;;;;;12.71;61.88;102236.28;683160;29;817;-59
2021/06/23 01:19:37;;;;;;;5.80;2.23;;;;;;;12.75;61.95;102235.28;683119;29;873;-59
2021/06/23 01:20:06;;;;;;;5.30;2.10;;;;;;;12.79;61.78;102234.28;683267;29;845;-59
2021/06/23 01:20:26;;;;;;;7.78;2.25;;;;;;;12.78;62.24;102232.56;683056;29;1005;-59
2021/06/23 01:20:47;;;;;;;8.02;2.30;;;;;;;12.80;61.92;102230.75;683207;29;835;-59
2021/06/23 01:21:08;;;;;;;6.22;2.20;;;;;;;12.80;61.97;102228.09;682831;29;1483;-59
2021/06/23 01:21:29;;;;;;;6.17;2.27;;;;;;;12.80;61.61;102230.75;683168;29;869;-59
2021/06/23 01:21:49;;;;;;;5.40;2.23;;;;;;;12.73;61.76;102221.25;683206;29;817;-59
2021/06/23 01:22:13;;;;;;;5.63;2.10;;;;;;;12.71;61.82;102227.50;683194;29;825;-59
2021/06/23 01:22:36;;;;;;;6.13;2.20;;;;;;;12.72;61.89;102235.38;683194;29;1033;-59
2021/06/23 01:22:56;;;;;;;5.90;2.28;;;;;;;12.71;61.52;102233.66;682788;29;884;-59
2021/06/23 01:23:17;;;;;;;5.63;2.33;;;;;;;12.69;61.73;102234.59;683092;29;992;-58
2021/06/23 01:23:38;;;;;;;6.45;2.60;;;;;;;12.70;61.75;102231.91;683286;29;844;-59
2021/06/23 01:23:58;;;;;;;5.47;2.20;;;;;;;12.75;62.05;102227.34;683178;29;860;-59
2021/06/23 01:24:18;;;;;;;5.90;2.13;;;;;;;12.74;61.80;102233.56;683256;29;1049;-59
2021/06/23 01:24:39;;;;;;;5.40;2.20;;;;;;;12.72;61.97;102224.78;683254;29;1025;-59
2021/06/23 01:25:00;;;;;;;5.35;1.98;;;;;;;12.72;62.32;102226.56;683030;29;861;-59
2021/06/23 01:25:20;;;;;;;5.22;2.17;;;;;;;12.69;62.24;102232.81;683187;29;964;-58
2021/06/23 01:25:42;;;;;;;5.60;2.20;;;;;;;12.67;62.88;102232.00;683258;29;857;-59
2021/06/23 01:26:02;;;;;;;6.53;2.20;;;;;;;12.66;62.67;102240.81;683156;29;964;-58
2021/06/23 01:26:23;;;;;;;5.28;2.08;;;;;;;12.61;62.93;102232.16;683284;29;900;-59
2021/06/23 01:26:43;;;;;;;5.27;2.20;;;;;;;12.59;62.48;102234.88;683158;29;976;-59
2021/06/23 01:27:04;;;;;;;5.60;2.20;;;;;;;12.58;62.81;102237.53;683174;29;996;-59
2021/06/23 01:27:25;;;;;;;6.73;2.20;;;;;;;12.59;62.88;102228.69;683090;29;850;-58
2021/06/23 01:27:46;;;;;;;5.85;2.00;;;;;;;12.64;62.84;102232.09;683137;29;1000;-58
2021/06/23 01:28:07;;;;;;;5.70;2.13;;;;;;;12.64;63.05;102237.38;683165;29;1325;-58
2021/06/23 01:28:27;;;;;;;5.13;2.17;;;;;;;12.64;62.67;102229.44;683170;29;1020;-58
2021/06/23 01:28:48;;;;;;;5.20;2.20;;;;;;;12.67;62.83;102233.78;683081;29;817;-58
2021/06/23 01:29:08;;;;;;;4.90;2.27;;;;;;;12.66;62.54;102230.25;683096;29;988;-58
2021/06/23 01:29:28;;;;;;;6.20;2.20;;;;;;;12.64;62.72;102232.09;683083;29;912;-58
2021/06/23 01:29:49;;;;;;;6.57;2.20;;;;;;;12.65;62.60;102232.94;683117;29;841;-58
2021/06/23 01:30:11;;;;;;;7.03;2.40;;;;;;;12.69;62.50;102229.31;680297;29;1195;-58
2021/06/23 01:30:32;;;;;;;6.68;2.40;;;;;;;12.67;62.96;102237.28;680248;29;1295;-58
2021/06/23 01:30:56;;;;;;;7.53;2.27;;;;;;;12.62;62.39;102228.59;680401;29;873;-58
2021/06/23 01:31:18;;;;;;;8.75;2.22;;;;;;;12.64;62.79;102232.09;679599;29;1488;-58
2021/06/23 01:31:38;;;;;;;5.95;2.30;;;;;;;12.63;62.69;102230.38;680343;29;825;-58
2021/06/23 01:31:59;;;;;;;5.93;2.37;;;;;;;12.64;62.87;102226.78;681659;29;856;-58
2021/06/23 01:32:19;;;;;;;5.28;2.10;;;;;;;12.68;62.93;102233.72;683167;29;869;-58
2021/06/23 01:32:39;;;;;;;6.67;2.10;;;;;;;12.70;62.61;102231.06;682767;29;1914;-58
2021/06/23 01:33:02;;;;;;;6.23;2.20;;;;;;;12.68;62.55;102225.78;682635;29;1613;-58
2021/06/23 01:33:24;;;;;;;6.07;2.20;;;;;;;12.64;62.84;102232.09;683007;29;904;-59
2021/06/23 01:33:45;;;;;;;6.90;2.42;;;;;;;12.63;62.84;102230.38;683163;29;1091;-58
2021/06/23 01:34:06;;;;;;;6.03;2.35;;;;;;;12.59;62.12;102234.88;683120;29;1071;-59
2021/06/23 01:34:26;;;;;;;5.57;2.13;;;;;;;12.64;62.24;102228.59;683101;29;837;-58
2021/06/23 01:34:46;;;;;;;6.83;2.10;;;;;;;12.68;62.14;102228.44;683196;29;865;-59
2021/06/23 01:35:07;;;;;;;5.82;2.05;;;;;;;12.66;62.39;102229.38;683156;29;561;-58
2021/06/23 01:35:30;;;;;;;5.88;2.20;;;;;;;12.66;62.46;102230.25;682972;29;985;-59
2021/06/23 01:35:51;;;;;;;6.68;2.20;;;;;;;12.59;62.66;102231.34;683158;29;949;-59
2021/06/23 01:36:12;;;;;;;5.60;2.08;;;;;;;12.58;62.29;102227.81;683061;29;888;-59
2021/06/23 01:36:33;;;;;;;8.80;2.50;;;;;;;12.58;62.69;102227.81;683215;29;778;-59
2021/06/23 01:36:53;;;;;;;8.38;2.40;;;;;;;12.56;62.46;102228.81;683218;29;900;-58
2021/06/23 01:37:15;;;;;;;8.50;2.60;;;;;;;12.54;62.75;102226.19;682978;29;844;-59
2021/06/23 01:37:35;;;;;;;7.82;2.60;;;;;;;12.58;62.39;102232.25;683078;29;1051;-58
2021/06/23 01:37:56;;;;;;;6.07;2.13;;;;;;;12.61;62.55;102229.53;683133;29;1047;-58
2021/06/23 01:38:16;;;;;;;5.65;2.10;;;;;;;12.58;62.62;102227.81;683001;28;1378;-58
2021/06/23 01:38:37;;;;;;;6.43;2.40;;;;;;;12.56;62.91;102220.88;683216;29;826;-58
2021/06/23 01:38:57;;;;;;;7.65;2.40;;;;;;;12.58;63.03;102232.25;683119;29;892;-59
2021/06/23 01:39:17;;;;;;;6.77;2.50;;;;;;;12.58;62.72;102225.19;683094;29;836;-58
2021/06/23 01:39:38;;;;;;;7.43;2.50;;;;;;;12.60;62.91;102225.16;683026;29;837;-58
2021/06/23 01:39:59;;;;;;;6.28;2.38;;;;;;;12.63;62.92;102221.53;683129;29;962;-60
2021/06/23 01:40:20;;;;;;;5.22;2.30;;;;;;;12.63;62.79;102229.47;683175;29;909;-59
2021/06/23 01:40:40;;;;;;;6.80;2.30;;;;;;;12.62;62.62;102225.97;683227;29;867;-59
2021/06/23 01:41:01;;;;;;;6.93;2.50;;;;;;;12.57;62.47;102225.25;683016;29;928;-59
2021/06/23 01:41:22;;;;;;;6.47;2.20;;;;;;;12.54;62.43;102230.59;683135;29;793;-59
2021/06/23 01:41:42;;;;;;;5.35;2.13;;;;;;;12.55;62.62;102227.03;683031;29;980;-59
2021/06/23 01:42:06;;;;;;;5.70;2.25;;;;;;;12.57;62.28;102225.25;683213;29;876;-59
2021/06/23 01:42:27;;;;;;;8.73;2.20;;;;;;;12.54;62.09;102226.19;682939;29;1305;-59
2021/06/23 01:42:47;;;;;;;7.30;2.03;;;;;;;12.55;62.51;102227.91;682651;29;853;-59
2021/06/23 01:43:09;;;;;;;5.10;2.20;;;;;;;12.54;62.51;102220.03;682804;29;1510;-59
2021/06/23 01:43:29;;;;;;;5.22;2.22;;;;;;;12.53;62.48;102223.59;683066;29;1024;-58
2021/06/23 01:43:50;;;;;;;6.80;2.30;;;;;;;12.56;62.52;102224.38;682967;29;957;-58
2021/06/23 01:44:10;;;;;;;6.93;2.30;;;;;;;12.57;62.55;102228.75;683152;29;892;-58
2021/06/23 01:44:30;;;;;;;7.40;2.38;;;;;;;12.58;62.55;102226.97;683044;29;915;-58